Panagia Gorgoepikoo — SV5327 — position and weather

sailwx.info

Track history (hours):
 
Tides and Currents Weather Stations Pressure Air Temp Water Temp Dewpoint Dewpoint Depression Visibility Wind Speed Wind Dir Waves Ship Positions

Panagia Gorgoepikoo

Last reported at 2017-Oct-20 19:22 UTC. Time now 2017-Oct-20 19:43 UTC.
Position N 40°38' E 023°59'.

Length 20 m; draft 2 m.

Type: Fishing. MMSI: 237963000.

Date/timePositionNaut miles runAvg speedWind from/ knotsBaromVisibWave heightAir tempDewpointWater temp
2017-Oct-20 19:22N 40°38' E 023°59'0 0.0
2017-Oct-20 19:00N 40°38' E 023°59'0 0.8
2017-Oct-20 18:30N 40°38' E 023°59'3 6.5
2017-Oct-20 18:00N 40°37' E 024°03'0 0.3
2017-Oct-20 17:30N 40°37' E 024°03'0 0.3
2017-Oct-20 16:59N 40°37' E 024°03'3 5.4
2017-Oct-20 16:27N 40°40' E 024°05'4 9.1
2017-Oct-20 16:00N 40°42' E 024°09'5 9.8
2017-Oct-20 15:30N 40°45' E 024°14'5 9.4
2017-Oct-20 15:00N 40°48' E 024°19'3 3.0
2017-Oct-20 14:00N 40°51' E 024°19'0 0.0
2017-Oct-20 13:30N 40°51' E 024°19'0 0.0
2017-Oct-20 13:00N 40°51' E 024°19'0 0.0
2017-Oct-20 12:30N 40°51' E 024°19'0 0.0
2017-Oct-20 12:00N 40°51' E 024°19'0 0.0
2017-Oct-20 11:30N 40°51' E 024°19'0 0.0
2017-Oct-20 11:00N 40°51' E 024°19'0 0.0
2017-Oct-20 10:30N 40°51' E 024°19'0 0.0
2017-Oct-20 10:00N 40°51' E 024°19'0 0.0
2017-Oct-20 09:30N 40°51' E 024°19'0 0.0
2017-Oct-20 09:00N 40°51' E 024°19'0 0.0
2017-Oct-20 08:30N 40°51' E 024°19'0 0.0
2017-Oct-20 08:00N 40°51' E 024°19'0 0.0
2017-Oct-20 07:30N 40°51' E 024°19'0 0.0
2017-Oct-20 07:00N 40°51' E 024°19'0 0.0
2017-Oct-20 06:30N 40°51' E 024°19'0 0.0
2017-Oct-20 06:00N 40°51' E 024°19'1 2.2
2017-Oct-20 05:30N 40°50' E 024°20'4 8.1
2017-Oct-20 05:00N 40°47' E 024°17'5 9.9
2017-Oct-20 04:30N 40°43' E 024°13'5 9.7
2017-Oct-20 04:00N 40°39' E 024°08'14 2.4
2017-Oct-19 22:21N 40°28' E 023°58'0 0.0
2017-Oct-19 22:00N 40°28' E 023°58'0 0.0
2017-Oct-19 21:30N 40°28' E 023°58'0 0.0
2017-Oct-19 21:00N 40°28' E 023°58'0 0.0
2017-Oct-19 20:30N 40°28' E 023°58'0 0.0
2017-Oct-19 20:00N 40°28' E 023°58'0 0.0
2017-Oct-19 19:30N 40°28' E 023°58'0 0.1
2017-Oct-19 18:54N 40°28' E 023°58'0 0.0
2017-Oct-19 18:24N 40°28' E 023°58'0 0.1
2017-Oct-19 18:00N 40°28' E 023°58'0 0.0
2017-Oct-19 17:30N 40°28' E 023°58'0 0.1
2017-Oct-19 16:59N 40°28' E 023°58'0 0.2
2017-Oct-19 16:29N 40°28' E 023°58'1 1.5
2017-Oct-19 16:00N 40°28' E 023°58'1 1.8
2017-Oct-19 15:30N 40°27' E 023°57'1 1.8
2017-Oct-19 15:00N 40°26' E 023°56'2 4.1
2017-Oct-19 14:29N 40°24' E 023°56'1 2.5
2017-Oct-19 14:00N 40°23' E 023°56'0 0.0
2017-Oct-19 13:30N 40°23' E 023°56'0 0.0
2017-Oct-19 13:00N 40°23' E 023°56'0 0.0
2017-Oct-19 12:30N 40°23' E 023°56'0 0.0
2017-Oct-19 12:00N 40°23' E 023°56'0 0.0
2017-Oct-19 11:30N 40°23' E 023°56'0 0.0
2017-Oct-19 11:00N 40°23' E 023°56'0 0.0
2017-Oct-19 10:30N 40°23' E 023°56'0 0.0
2017-Oct-19 10:00N 40°23' E 023°56'0 0.0
2017-Oct-19 09:30N 40°23' E 023°56'0 0.0
2017-Oct-19 09:00N 40°23' E 023°56'0 0.0
2017-Oct-19 08:30N 40°23' E 023°56'0 0.0
2017-Oct-19 08:00N 40°23' E 023°56'0 0.0
2017-Oct-19 07:30N 40°23' E 023°56'0 0.0
2017-Oct-19 07:00N 40°23' E 023°56'0 0.0
2017-Oct-19 06:21N 40°23' E 023°56'0 0.0
2017-Oct-19 06:00N 40°23' E 023°56'0 0.0
2017-Oct-19 05:30N 40°23' E 023°56'0 0.0
2017-Oct-19 05:00N 40°23' E 023°56'0 0.0
2017-Oct-19 04:30N 40°23' E 023°56'0 0.0
2017-Oct-19 04:00N 40°23' E 023°56'0 0.0
2017-Oct-19 03:30N 40°23' E 023°56'5 9.3
2017-Oct-19 03:00N 40°28' E 023°55'3 5.6
2017-Oct-19 02:29N 40°30' E 023°54'0 0.4
2017-Oct-19 02:00N 40°30' E 023°54'0 0.7
2017-Oct-19 01:29N 40°30' E 023°54'0 0.0
2017-Oct-18 23:11N 40°30' E 023°54'0 0.2
2017-Oct-18 21:42N 40°30' E 023°54'0 1.4
2017-Oct-18 21:27N 40°30' E 023°54'1 1.9
2017-Oct-18 20:53N 40°29' E 023°54'4 9.7
2017-Oct-18 20:26N 40°31' E 023°60'4 9.8
2017-Oct-18 20:00N 40°34' E 024°04'2 4.9
2017-Oct-18 19:30N 40°37' E 024°04'0 0.1
2017-Oct-18 19:00N 40°37' E 024°04'0 0.6
2017-Oct-18 18:29N 40°37' E 024°03'0 0.2
2017-Oct-18 17:30N 40°37' E 024°03'0 0.4
2017-Oct-18 16:59N 40°37' E 024°03'15 2.3
2017-Oct-18 10:24N 40°23' E 023°56'0 0.0
2017-Oct-18 10:00N 40°23' E 023°56'0 0.0
2017-Oct-18 09:29N 40°23' E 023°56'0 0.0
2017-Oct-18 09:00N 40°23' E 023°56'0 0.0
2017-Oct-18 08:30N 40°23' E 023°56'0 0.0
2017-Oct-18 08:00N 40°23' E 023°56'0 0.0
2017-Oct-18 07:30N 40°23' E 023°56'0 0.0
2017-Oct-18 07:00N 40°23' E 023°56'0 0.0
2017-Oct-18 06:30N 40°23' E 023°56'0 0.0
2017-Oct-18 06:00N 40°23' E 023°56'28 6.1
2017-Oct-18 01:30N 40°42' E 024°23'0 0.8
2017-Oct-18 01:00N 40°41' E 024°22'0 0.0
2017-Oct-18 00:30N 40°41' E 024°22'0 0.0
2017-Oct-18 00:00N 40°41' E 024°22'0 0.0
2017-Oct-17 23:30N 40°41' E 024°22'0 0.0
2017-Oct-17 23:00N 40°41' E 024°22'0 0.0
2017-Oct-17 22:30N 40°41' E 024°22'0 0.0
2017-Oct-17 22:00N 40°41' E 024°22'0 0.0
2017-Oct-17 21:30N 40°41' E 024°22'0 0.0
2017-Oct-17 21:00N 40°41' E 024°22'0 0.0
2017-Oct-17 20:30N 40°41' E 024°22'0 0.1
2017-Oct-17 20:00N 40°42' E 024°22'0 0.9
2017-Oct-17 19:30N 40°42' E 024°22'11 7.1
2017-Oct-17 17:55N 40°39' E 024°08'2 4.0
2017-Oct-17 17:30N 40°38' E 024°09'0 0.0
2017-Oct-17 17:00N 40°38' E 024°09'0 0.1
2017-Oct-17 16:30N 40°38' E 024°09'1 1.9
2017-Oct-17 16:00N 40°39' E 024°09'4 8.0
2017-Oct-17 15:30N 40°42' E 024°13'4 8.3
2017-Oct-17 15:00N 40°45' E 024°16'4 7.9
2017-Oct-17 14:30N 40°48' E 024°19'3 5.5
2017-Oct-17 14:00N 40°51' E 024°19'0 0.3
2017-Oct-17 13:30N 40°51' E 024°19'0 0.0
2017-Oct-17 13:00N 40°51' E 024°19'0 0.0
2017-Oct-17 12:30N 40°51' E 024°19'0 0.0
2017-Oct-17 12:00N 40°51' E 024°19'0 0.0
2017-Oct-17 11:30N 40°51' E 024°19'0 0.0
2017-Oct-17 11:00N 40°51' E 024°19'0 0.0
2017-Oct-17 10:30N 40°51' E 024°19'0 0.0
2017-Oct-17 10:00N 40°51' E 024°19'0 0.0
2017-Oct-17 09:30N 40°51' E 024°19'0 0.0
2017-Oct-17 09:00N 40°51' E 024°19'0 0.0
2017-Oct-17 08:30N 40°51' E 024°19'0 0.0
2017-Oct-17 08:00N 40°51' E 024°19'0 0.0
2017-Oct-17 07:30N 40°51' E 024°19'0 0.0
2017-Oct-17 07:00N 40°51' E 024°19'0 0.0
2017-Oct-17 06:30N 40°51' E 024°19'0 0.0
2017-Oct-17 06:00N 40°51' E 024°19'0 0.0
2017-Oct-17 05:30N 40°51' E 024°19'0 0.0
2017-Oct-17 05:00N 40°51' E 024°19'0 0.0
2017-Oct-17 04:30N 40°51' E 024°19'0 0.0
2017-Oct-17 04:00N 40°51' E 024°19'0 0.0
2017-Oct-17 03:27N 40°51' E 024°19'0 0.0
2017-Oct-17 03:00N 40°51' E 024°19'0 0.0
2017-Oct-17 02:30N 40°51' E 024°19'0 0.0
2017-Oct-17 02:00N 40°51' E 024°19'0 0.0
2017-Oct-17 01:30N 40°51' E 024°19'0 0.0
2017-Oct-17 01:00N 40°51' E 024°19'0 0.0
2017-Oct-17 00:30N 40°51' E 024°19'0 0.0
2017-Oct-17 00:00N 40°51' E 024°19'0 0.0
2017-Oct-16 23:29N 40°51' E 024°19'0 0.0
2017-Oct-16 23:00N 40°51' E 024°19'0 0.0
2017-Oct-16 22:30N 40°51' E 024°19'0 0.0
2017-Oct-16 22:00N 40°51' E 024°19'0 0.0
2017-Oct-16 21:30N 40°51' E 024°19'2 3.1
2017-Oct-16 21:00N 40°50' E 024°20'510.0
2017-Oct-16 20:30N 40°46' E 024°17'510.5
2017-Oct-16 20:00N 40°42' E 024°12'3 5.3
2017-Oct-16 19:26N 40°39' E 024°10'0 0.2
2017-Oct-16 18:48N 40°39' E 024°10'0 1.2
2017-Oct-16 18:29N 40°39' E 024°09'0 0.1
2017-Oct-16 17:20N 40°39' E 024°10'0 0.8
2017-Oct-16 17:00N 40°39' E 024°09'0 0.4
2017-Oct-16 16:30N 40°39' E 024°09'2 3.6
2017-Oct-16 15:59N 40°40' E 024°12'4 8.5
2017-Oct-16 15:30N 40°43' E 024°15'4 8.6
2017-Oct-16 15:00N 40°46' E 024°18'5 4.6
2017-Oct-16 14:00N 40°51' E 024°19'0 0.0
2017-Oct-16 13:30N 40°51' E 024°19'0 0.0
2017-Oct-16 13:00N 40°51' E 024°19'0 0.0
2017-Oct-16 12:30N 40°51' E 024°19'0 0.0
2017-Oct-16 12:00N 40°51' E 024°19'0 0.0
2017-Oct-16 11:30N 40°51' E 024°19'0 0.0
2017-Oct-16 11:00N 40°51' E 024°19'0 0.0
2017-Oct-16 10:30N 40°51' E 024°19'0 0.0
2017-Oct-16 10:00N 40°51' E 024°19'0 0.0
2017-Oct-16 09:30N 40°51' E 024°19'0 0.0
2017-Oct-16 09:00N 40°51' E 024°19'0 0.0
2017-Oct-16 08:30N 40°51' E 024°19'0 0.0
2017-Oct-16 08:00N 40°51' E 024°19'0 0.0
2017-Oct-16 07:30N 40°51' E 024°19'0 0.0
2017-Oct-16 07:00N 40°51' E 024°19'0 0.0
2017-Oct-16 06:30N 40°51' E 024°19'0 0.0
2017-Oct-16 06:00N 40°51' E 024°19'0 0.0
2017-Oct-16 05:30N 40°51' E 024°19'0 0.0
2017-Oct-16 05:00N 40°51' E 024°19'0 0.0
2017-Oct-16 04:30N 40°51' E 024°19'0 0.0
2017-Oct-16 04:00N 40°51' E 024°19'0 0.0
2017-Oct-16 03:30N 40°51' E 024°19'0 0.0
2017-Oct-16 03:00N 40°51' E 024°19'0 0.0
2017-Oct-16 02:30N 40°51' E 024°19'0 0.0
2017-Oct-16 02:00N 40°51' E 024°19'0 0.0
2017-Oct-16 01:30N 40°51' E 024°19'0 0.0
2017-Oct-16 01:00N 40°51' E 024°19'0 0.0
2017-Oct-16 00:30N 40°51' E 024°19'0 0.0
2017-Oct-16 00:00N 40°51' E 024°19'0 0.0
2017-Oct-15 23:30N 40°51' E 024°19'0 0.0
2017-Oct-15 23:00N 40°51' E 024°19'0 0.0
2017-Oct-15 22:30N 40°51' E 024°19'0 0.0
2017-Oct-15 22:00N 40°51' E 024°19'1 2.8
2017-Oct-15 21:30N 40°50' E 024°20'510.1
2017-Oct-15 21:00N 40°46' E 024°17'510.8
2017-Oct-15 20:30N 40°42' E 024°12'3 6.8
2017-Oct-15 20:00N 40°39' E 024°09'0 0.2
2017-Oct-15 19:22N 40°39' E 024°09'0 0.5
2017-Oct-15 18:54N 40°39' E 024°09'0 0.1
2017-Oct-15 18:30N 40°39' E 024°09'0 0.5
2017-Oct-15 17:59N 40°38' E 024°09'0 0.2
2017-Oct-15 17:30N 40°38' E 024°09'0 0.1
2017-Oct-15 16:59N 40°38' E 024°09'0 0.3
2017-Oct-15 16:30N 40°38' E 024°09'0 0.7
2017-Oct-15 15:59N 40°39' E 024°10'3 6.1
2017-Oct-15 15:30N 40°40' E 024°13'5 9.0
2017-Oct-15 15:00N 40°42' E 024°18'8 8.1
2017-Oct-15 14:00N 40°43' E 024°29'2 0.2
2017-Oct-15 02:23N 40°43' E 024°32'2 5.6
2017-Oct-15 02:00N 40°41' E 024°31'3 5.4
2017-Oct-15 01:30N 40°38' E 024°29'0 0.7
2017-Oct-15 01:00N 40°38' E 024°29'0 1.0
2017-Oct-15 00:30N 40°39' E 024°30'0 0.1
2017-Oct-15 00:00N 40°39' E 024°30'0 0.0
2017-Oct-14 23:30N 40°39' E 024°30'0 0.0
2017-Oct-14 23:00N 40°39' E 024°30'0 0.0
2017-Oct-14 22:30N 40°39' E 024°30'0 0.0
2017-Oct-14 22:00N 40°39' E 024°30'0 0.0
2017-Oct-14 21:30N 40°39' E 024°30'0 0.0
2017-Oct-14 21:00N 40°39' E 024°30'0 0.0
2017-Oct-14 20:30N 40°39' E 024°30'0 0.0
2017-Oct-14 20:00N 40°39' E 024°30'0 0.0
2017-Oct-14 19:30N 40°39' E 024°30'0 0.6
2017-Oct-14 19:00N 40°38' E 024°30'2 4.1
2017-Oct-14 18:30N 40°37' E 024°31'4 7.3
2017-Oct-14 18:00N 40°36' E 024°36'2 4.9
2017-Oct-14 17:30N 40°35' E 024°33'0 0.8
2017-Oct-14 17:00N 40°35' E 024°32'2 4.8
2017-Oct-14 16:30N 40°37' E 024°31'4 7.4
2017-Oct-14 16:00N 40°40' E 024°30'4 8.4
2017-Oct-14 15:30N 40°44' E 024°28'5 9.0
2017-Oct-14 15:00N 40°48' E 024°24'5 9.1
2017-Oct-14 14:30N 40°51' E 024°19'0 1.0
2017-Oct-14 14:00N 40°51' E 024°19'0 0.0
2017-Oct-14 13:30N 40°51' E 024°19'0 0.0
2017-Oct-14 13:00N 40°51' E 024°19'0 0.0
2017-Oct-14 12:30N 40°51' E 024°19'0 0.0
2017-Oct-14 12:00N 40°51' E 024°19'0 0.0
2017-Oct-14 11:30N 40°51' E 024°19'0 0.0
2017-Oct-14 11:00N 40°51' E 024°19'0 0.0
2017-Oct-14 10:30N 40°51' E 024°19'0 0.0
2017-Oct-14 10:00N 40°51' E 024°19'0 0.0
2017-Oct-14 09:30N 40°51' E 024°19'0 0.0
2017-Oct-14 09:00N 40°51' E 024°19'0 0.0
2017-Oct-14 08:30N 40°51' E 024°19'0 0.0
2017-Oct-14 08:00N 40°51' E 024°19'0 0.0
2017-Oct-14 07:30N 40°51' E 024°19'0 0.0
2017-Oct-14 07:00N 40°51' E 024°19'0 0.0
2017-Oct-14 06:30N 40°51' E 024°19'0 0.0
2017-Oct-14 06:00N 40°51' E 024°19'0 0.0
2017-Oct-14 05:30N 40°51' E 024°19'0 0.0
2017-Oct-14 05:00N 40°51' E 024°19'0 0.0
2017-Oct-14 04:30N 40°51' E 024°19'0 0.0
2017-Oct-14 04:00N 40°51' E 024°19'0 0.0
2017-Oct-14 03:30N 40°51' E 024°19'0 0.0
2017-Oct-14 03:00N 40°51' E 024°19'0 0.0
2017-Oct-14 02:30N 40°51' E 024°19'0 0.0
2017-Oct-14 02:00N 40°51' E 024°19'0 0.0
2017-Oct-14 01:30N 40°51' E 024°19'0 0.0
2017-Oct-14 01:00N 40°51' E 024°19'0 0.0
2017-Oct-14 00:30N 40°51' E 024°19'0 0.0
2017-Oct-14 00:00N 40°51' E 024°19'0 0.0
2017-Oct-13 23:30N 40°51' E 024°19'0 0.0
2017-Oct-13 23:00N 40°51' E 024°19'0 0.0
2017-Oct-13 22:30N 40°51' E 024°19'0 0.0
2017-Oct-13 22:00N 40°51' E 024°19'0 0.0
2017-Oct-13 21:30N 40°51' E 024°19'0 0.0
2017-Oct-13 21:00N 40°51' E 024°19'0 0.0
2017-Oct-13 20:30N 40°51' E 024°19'1 2.0
2017-Oct-13 20:00N 40°50' E 024°20'5 9.3
2017-Oct-13 19:30N 40°47' E 024°16'611.2
2017-Oct-13 19:00N 40°43' E 024°10'4 5.1
2017-Oct-13 18:18N 40°41' E 024°07'0 0.6
2017-Oct-13 17:58N 40°40' E 024°07'0 0.7
2017-Oct-13 17:30N 40°40' E 024°07'0 0.3
2017-Oct-13 17:00N 40°40' E 024°07'0 0.6
2017-Oct-13 16:30N 40°40' E 024°07'2 3.9
2017-Oct-13 15:55N 40°42' E 024°09'4 8.8
2017-Oct-13 15:30N 40°44' E 024°13'8 8.3
2017-Oct-13 14:32N 40°49' E 024°21'0 7.4
2017-Oct-13 14:30N 40°49' E 024°21'2 4.0
2017-Oct-13 14:00N 40°51' E 024°19'0 0.0
2017-Oct-13 13:30N 40°51' E 024°19'0 0.0
2017-Oct-13 13:00N 40°51' E 024°19'0 0.0
2017-Oct-13 12:30N 40°51' E 024°19'0 0.0
2017-Oct-13 12:00N 40°51' E 024°19'0 0.0
2017-Oct-13 11:30N 40°51' E 024°19'0 0.0
2017-Oct-13 11:00N 40°51' E 024°19'0 0.0
2017-Oct-13 10:30N 40°51' E 024°19'0 0.0
2017-Oct-13 10:00N 40°51' E 024°19'0 0.0
2017-Oct-13 09:30N 40°51' E 024°19'0 0.0
2017-Oct-13 09:00N 40°51' E 024°19'0 0.0
2017-Oct-13 08:30N 40°51' E 024°19'0 0.0
2017-Oct-13 08:00N 40°51' E 024°19'0 0.0
2017-Oct-13 07:30N 40°51' E 024°19'0 0.0
2017-Oct-13 07:00N 40°51' E 024°19'0 0.0
2017-Oct-13 06:30N 40°51' E 024°19'0 0.0
2017-Oct-13 06:00N 40°51' E 024°19'0 0.0
2017-Oct-13 05:30N 40°51' E 024°19'2 4.6
2017-Oct-13 05:00N 40°49' E 024°20'510.1
2017-Oct-13 04:30N 40°46' E 024°14'5 9.8
2017-Oct-13 04:00N 40°43' E 024°09'8 8.4
2017-Oct-13 03:06N 40°36' E 024°04'0 0.9
2017-Oct-13 02:56N 40°36' E 024°04'0 0.0
2017-Oct-13 02:27N 40°36' E 024°04'2 2.9
2017-Oct-13 01:50N 40°34' E 024°05'1 1.6
2017-Oct-13 01:15N 40°33' E 024°05'0 0.0
2017-Oct-12 22:59N 40°33' E 024°05'0 0.1
2017-Oct-12 22:29N 40°33' E 024°05'0 0.2
2017-Oct-12 21:56N 40°33' E 024°05'2 3.0
2017-Oct-12 21:25N 40°35' E 024°06'1 3.4
2017-Oct-12 21:00N 40°36' E 024°07'3 5.0
2017-Oct-12 20:29N 40°38' E 024°09'0 0.7
2017-Oct-12 20:00N 40°38' E 024°09'0 0.6
2017-Oct-12 19:30N 40°37' E 024°09'0 0.5
2017-Oct-12 19:00N 40°37' E 024°09'1 1.0
2017-Oct-12 18:30N 40°37' E 024°09'1 1.2
2017-Oct-12 18:00N 40°37' E 024°09'0 0.4
2017-Oct-12 17:14N 40°37' E 024°09'0 0.3
2017-Oct-12 16:56N 40°37' E 024°09'1 3.3
2017-Oct-12 16:30N 40°38' E 024°08'5 9.5
2017-Oct-12 16:00N 40°42' E 024°13'5 9.3
2017-Oct-12 15:30N 40°45' E 024°17'4 8.6
2017-Oct-12 15:00N 40°49' E 024°20'0 0.6
2017-Oct-12 14:30N 40°49' E 024°20'2 0.5
2017-Oct-12 10:12N 40°51' E 024°19'0 0.0
2017-Oct-12 10:00N 40°51' E 024°19'0 0.0
2017-Oct-12 09:30N 40°51' E 024°19'0 0.0
2017-Oct-12 08:59N 40°51' E 024°19'0 0.0
2017-Oct-12 08:30N 40°51' E 024°19'0 0.0
2017-Oct-12 08:00N 40°51' E 024°19'0 0.0
2017-Oct-12 07:30N 40°51' E 024°19'0 0.0
2017-Oct-12 06:56N 40°51' E 024°19'0 0.0
2017-Oct-12 06:28N 40°51' E 024°19'0 0.0
2017-Oct-12 06:00N 40°51' E 024°19'0 0.0
2017-Oct-12 05:03N 40°51' E 024°19'0 0.0
2017-Oct-12 05:00N 40°51' E 024°19'0 0.0
2017-Oct-12 04:30N 40°51' E 024°19'0 0.0
2017-Oct-12 04:00N 40°51' E 024°19'0 0.0
2017-Oct-12 03:30N 40°51' E 024°19'0 0.0
2017-Oct-12 03:00N 40°51' E 024°19'0 0.0
2017-Oct-12 02:30N 40°51' E 024°19'0 0.0
2017-Oct-12 02:00N 40°51' E 024°19'0 0.0
2017-Oct-12 01:30N 40°51' E 024°19'0 0.0
2017-Oct-12 01:00N 40°51' E 024°19'0 0.0
2017-Oct-12 00:30N 40°51' E 024°19'0 0.0
2017-Oct-12 00:00N 40°51' E 024°19'0 0.0
2017-Oct-11 23:30N 40°51' E 024°19'0 0.0
2017-Oct-11 23:00N 40°51' E 024°19'0 0.0
2017-Oct-11 22:30N 40°51' E 024°19'0 0.0
2017-Oct-11 22:00N 40°51' E 024°19'3 6.8
2017-Oct-11 21:30N 40°47' E 024°19'510.9
2017-Oct-11 21:00N 40°43' E 024°14'610.7
2017-Oct-11 20:29N 40°38' E 024°10'2 3.8
2017-Oct-11 19:58N 40°37' E 024°09'0 0.3
2017-Oct-11 19:28N 40°37' E 024°09'0 0.7
2017-Oct-11 18:57N 40°36' E 024°09'0 0.4
2017-Oct-11 18:23N 40°36' E 024°09'0 0.3
2017-Oct-11 17:50N 40°36' E 024°09'3 6.8
2017-Oct-11 17:22N 40°40' E 024°08'0 1.2
2017-Oct-11 16:59N 40°40' E 024°09'  
Track history (hours):
 
Tides and Currents Weather Stations Pressure Air Temp Water Temp Dewpoint Dewpoint Depression Visibility Wind Speed Wind Dir Waves Ship Positions

Panagia Gorgoepikoo

Last reported at 2017-Oct-20 19:22 UTC. Time now 2017-Oct-20 19:43 UTC.
Position N 40°38' E 023°59'.

Length 20 m; draft 2 m.

Type: Fishing. MMSI: 237963000.

Date/timePositionNaut miles runAvg speedWind from/ knotsBaromVisibWave heightAir tempDewpointWater temp
2017-Oct-20 19:22N 40°38' E 023°59'0 0.0
2017-Oct-20 19:00N 40°38' E 023°59'0 0.8
2017-Oct-20 18:30N 40°38' E 023°59'3 6.5
2017-Oct-20 18:00N 40°37' E 024°03'0 0.3
2017-Oct-20 17:30N 40°37' E 024°03'0 0.3
2017-Oct-20 16:59N 40°37' E 024°03'3 5.4
2017-Oct-20 16:27N 40°40' E 024°05'4 9.1
2017-Oct-20 16:00N 40°42' E 024°09'5 9.8
2017-Oct-20 15:30N 40°45' E 024°14'5 9.4
2017-Oct-20 15:00N 40°48' E 024°19'3 3.0
2017-Oct-20 14:00N 40°51' E 024°19'0 0.0
2017-Oct-20 13:30N 40°51' E 024°19'0 0.0
2017-Oct-20 13:00N 40°51' E 024°19'0 0.0
2017-Oct-20 12:30N 40°51' E 024°19'0 0.0
2017-Oct-20 12:00N 40°51' E 024°19'0 0.0
2017-Oct-20 11:30N 40°51' E 024°19'0 0.0
2017-Oct-20 11:00N 40°51' E 024°19'0 0.0
2017-Oct-20 10:30N 40°51' E 024°19'0 0.0
2017-Oct-20 10:00N 40°51' E 024°19'0 0.0
2017-Oct-20 09:30N 40°51' E 024°19'0 0.0
2017-Oct-20 09:00N 40°51' E 024°19'0 0.0
2017-Oct-20 08:30N 40°51' E 024°19'0 0.0
2017-Oct-20 08:00N 40°51' E 024°19'0 0.0
2017-Oct-20 07:30N 40°51' E 024°19'0 0.0
2017-Oct-20 07:00N 40°51' E 024°19'0 0.0
2017-Oct-20 06:30N 40°51' E 024°19'0 0.0
2017-Oct-20 06:00N 40°51' E 024°19'1 2.2
2017-Oct-20 05:30N 40°50' E 024°20'4 8.1
2017-Oct-20 05:00N 40°47' E 024°17'5 9.9
2017-Oct-20 04:30N 40°43' E 024°13'5 9.7
2017-Oct-20 04:00N 40°39' E 024°08'14 2.4
2017-Oct-19 22:21N 40°28' E 023°58'0 0.0
2017-Oct-19 22:00N 40°28' E 023°58'0 0.0
2017-Oct-19 21:30N 40°28' E 023°58'0 0.0
2017-Oct-19 21:00N 40°28' E 023°58'0 0.0
2017-Oct-19 20:30N 40°28' E 023°58'0 0.0
2017-Oct-19 20:00N 40°28' E 023°58'0 0.0
2017-Oct-19 19:30N 40°28' E 023°58'0 0.1
2017-Oct-19 18:54N 40°28' E 023°58'0 0.0
2017-Oct-19 18:24N 40°28' E 023°58'0 0.1
2017-Oct-19 18:00N 40°28' E 023°58'0 0.0
2017-Oct-19 17:30N 40°28' E 023°58'0 0.1
2017-Oct-19 16:59N 40°28' E 023°58'0 0.2
2017-Oct-19 16:29N 40°28' E 023°58'1 1.5
2017-Oct-19 16:00N 40°28' E 023°58'1 1.8
2017-Oct-19 15:30N 40°27' E 023°57'1 1.8
2017-Oct-19 15:00N 40°26' E 023°56'2 4.1
2017-Oct-19 14:29N 40°24' E 023°56'1 2.5
2017-Oct-19 14:00N 40°23' E 023°56'0 0.0
2017-Oct-19 13:30N 40°23' E 023°56'0 0.0
2017-Oct-19 13:00N 40°23' E 023°56'0 0.0
2017-Oct-19 12:30N 40°23' E 023°56'0 0.0
2017-Oct-19 12:00N 40°23' E 023°56'0 0.0
2017-Oct-19 11:30N 40°23' E 023°56'0 0.0
2017-Oct-19 11:00N 40°23' E 023°56'0 0.0
2017-Oct-19 10:30N 40°23' E 023°56'0 0.0
2017-Oct-19 10:00N 40°23' E 023°56'0 0.0
2017-Oct-19 09:30N 40°23' E 023°56'0 0.0
2017-Oct-19 09:00N 40°23' E 023°56'0 0.0
2017-Oct-19 08:30N 40°23' E 023°56'0 0.0
2017-Oct-19 08:00N 40°23' E 023°56'0 0.0
2017-Oct-19 07:30N 40°23' E 023°56'0 0.0
2017-Oct-19 07:00N 40°23' E 023°56'0 0.0
2017-Oct-19 06:21N 40°23' E 023°56'0 0.0
2017-Oct-19 06:00N 40°23' E 023°56'0 0.0
2017-Oct-19 05:30N 40°23' E 023°56'0 0.0
2017-Oct-19 05:00N 40°23' E 023°56'0 0.0
2017-Oct-19 04:30N 40°23' E 023°56'0 0.0
2017-Oct-19 04:00N 40°23' E 023°56'0 0.0
2017-Oct-19 03:30N 40°23' E 023°56'5 9.3
2017-Oct-19 03:00N 40°28' E 023°55'3 5.6
2017-Oct-19 02:29N 40°30' E 023°54'0 0.4
2017-Oct-19 02:00N 40°30' E 023°54'0 0.7
2017-Oct-19 01:29N 40°30' E 023°54'0 0.0
2017-Oct-18 23:11N 40°30' E 023°54'0 0.2
2017-Oct-18 21:42N 40°30' E 023°54'0 1.4
2017-Oct-18 21:27N 40°30' E 023°54'1 1.9
2017-Oct-18 20:53N 40°29' E 023°54'4 9.7
2017-Oct-18 20:26N 40°31' E 023°60'4 9.8
2017-Oct-18 20:00N 40°34' E 024°04'2 4.9
2017-Oct-18 19:30N 40°37' E 024°04'0 0.1
2017-Oct-18 19:00N 40°37' E 024°04'0 0.6
2017-Oct-18 18:29N 40°37' E 024°03'0 0.2
2017-Oct-18 17:30N 40°37' E 024°03'0 0.4
2017-Oct-18 16:59N 40°37' E 024°03'15 2.3
2017-Oct-18 10:24N 40°23' E 023°56'0 0.0
2017-Oct-18 10:00N 40°23' E 023°56'0 0.0
2017-Oct-18 09:29N 40°23' E 023°56'0 0.0
2017-Oct-18 09:00N 40°23' E 023°56'0 0.0
2017-Oct-18 08:30N 40°23' E 023°56'0 0.0
2017-Oct-18 08:00N 40°23' E 023°56'0 0.0
2017-Oct-18 07:30N 40°23' E 023°56'0 0.0
2017-Oct-18 07:00N 40°23' E 023°56'0 0.0
2017-Oct-18 06:30N 40°23' E 023°56'0 0.0
2017-Oct-18 06:00N 40°23' E 023°56'28 6.1
2017-Oct-18 01:30N 40°42' E 024°23'0 0.8
2017-Oct-18 01:00N 40°41' E 024°22'0 0.0
2017-Oct-18 00:30N 40°41' E 024°22'0 0.0
2017-Oct-18 00:00N 40°41' E 024°22'0 0.0
2017-Oct-17 23:30N 40°41' E 024°22'0 0.0
2017-Oct-17 23:00N 40°41' E 024°22'0 0.0
2017-Oct-17 22:30N 40°41' E 024°22'0 0.0
2017-Oct-17 22:00N 40°41' E 024°22'0 0.0
2017-Oct-17 21:30N 40°41' E 024°22'0 0.0
2017-Oct-17 21:00N 40°41' E 024°22'0 0.0
2017-Oct-17 20:30N 40°41' E 024°22'0 0.1
2017-Oct-17 20:00N 40°42' E 024°22'0 0.9
2017-Oct-17 19:30N 40°42' E 024°22'11 7.1
2017-Oct-17 17:55N 40°39' E 024°08'2 4.0
2017-Oct-17 17:30N 40°38' E 024°09'0 0.0
2017-Oct-17 17:00N 40°38' E 024°09'0 0.1
2017-Oct-17 16:30N 40°38' E 024°09'1 1.9
2017-Oct-17 16:00N 40°39' E 024°09'4 8.0
2017-Oct-17 15:30N 40°42' E 024°13'4 8.3
2017-Oct-17 15:00N 40°45' E 024°16'4 7.9
2017-Oct-17 14:30N 40°48' E 024°19'3 5.5
2017-Oct-17 14:00N 40°51' E 024°19'0 0.3
2017-Oct-17 13:30N 40°51' E 024°19'0 0.0
2017-Oct-17 13:00N 40°51' E 024°19'0 0.0
2017-Oct-17 12:30N 40°51' E 024°19'0 0.0
2017-Oct-17 12:00N 40°51' E 024°19'0 0.0
2017-Oct-17 11:30N 40°51' E 024°19'0 0.0
2017-Oct-17 11:00N 40°51' E 024°19'0 0.0
2017-Oct-17 10:30N 40°51' E 024°19'0 0.0
2017-Oct-17 10:00N 40°51' E 024°19'0 0.0
2017-Oct-17 09:30N 40°51' E 024°19'0 0.0
2017-Oct-17 09:00N 40°51' E 024°19'0 0.0
2017-Oct-17 08:30N 40°51' E 024°19'0 0.0
2017-Oct-17 08:00N 40°51' E 024°19'0 0.0
2017-Oct-17 07:30N 40°51' E 024°19'0 0.0
2017-Oct-17 07:00N 40°51' E 024°19'0 0.0
2017-Oct-17 06:30N 40°51' E 024°19'0 0.0
2017-Oct-17 06:00N 40°51' E 024°19'0 0.0
2017-Oct-17 05:30N 40°51' E 024°19'0 0.0
2017-Oct-17 05:00N 40°51' E 024°19'0 0.0
2017-Oct-17 04:30N 40°51' E 024°19'0 0.0
2017-Oct-17 04:00N 40°51' E 024°19'0 0.0
2017-Oct-17 03:27N 40°51' E 024°19'0 0.0
2017-Oct-17 03:00N 40°51' E 024°19'0 0.0
2017-Oct-17 02:30N 40°51' E 024°19'0 0.0
2017-Oct-17 02:00N 40°51' E 024°19'0 0.0
2017-Oct-17 01:30N 40°51' E 024°19'0 0.0
2017-Oct-17 01:00N 40°51' E 024°19'0 0.0
2017-Oct-17 00:30N 40°51' E 024°19'0 0.0
2017-Oct-17 00:00N 40°51' E 024°19'0 0.0
2017-Oct-16 23:29N 40°51' E 024°19'0 0.0
2017-Oct-16 23:00N 40°51' E 024°19'0 0.0
2017-Oct-16 22:30N 40°51' E 024°19'0 0.0
2017-Oct-16 22:00N 40°51' E 024°19'0 0.0
2017-Oct-16 21:30N 40°51' E 024°19'2 3.1
2017-Oct-16 21:00N 40°50' E 024°20'510.0
2017-Oct-16 20:30N 40°46' E 024°17'510.5
2017-Oct-16 20:00N 40°42' E 024°12'3 5.3
2017-Oct-16 19:26N 40°39' E 024°10'0 0.2
2017-Oct-16 18:48N 40°39' E 024°10'0 1.2
2017-Oct-16 18:29N 40°39' E 024°09'0 0.1
2017-Oct-16 17:20N 40°39' E 024°10'0 0.8
2017-Oct-16 17:00N 40°39' E 024°09'0 0.4
2017-Oct-16 16:30N 40°39' E 024°09'2 3.6
2017-Oct-16 15:59N 40°40' E 024°12'4 8.5
2017-Oct-16 15:30N 40°43' E 024°15'4 8.6
2017-Oct-16 15:00N 40°46' E 024°18'5 4.6
2017-Oct-16 14:00N 40°51' E 024°19'0 0.0
2017-Oct-16 13:30N 40°51' E 024°19'0 0.0
2017-Oct-16 13:00N 40°51' E 024°19'0 0.0
2017-Oct-16 12:30N 40°51' E 024°19'0 0.0
2017-Oct-16 12:00N 40°51' E 024°19'0 0.0
2017-Oct-16 11:30N 40°51' E 024°19'0 0.0
2017-Oct-16 11:00N 40°51' E 024°19'0 0.0
2017-Oct-16 10:30N 40°51' E 024°19'0 0.0
2017-Oct-16 10:00N 40°51' E 024°19'0 0.0
2017-Oct-16 09:30N 40°51' E 024°19'0 0.0
2017-Oct-16 09:00N 40°51' E 024°19'0 0.0
2017-Oct-16 08:30N 40°51' E 024°19'0 0.0
2017-Oct-16 08:00N 40°51' E 024°19'0 0.0
2017-Oct-16 07:30N 40°51' E 024°19'0 0.0
2017-Oct-16 07:00N 40°51' E 024°19'0 0.0
2017-Oct-16 06:30N 40°51' E 024°19'0 0.0
2017-Oct-16 06:00N 40°51' E 024°19'0 0.0
2017-Oct-16 05:30N 40°51' E 024°19'0 0.0
2017-Oct-16 05:00N 40°51' E 024°19'0 0.0
2017-Oct-16 04:30N 40°51' E 024°19'0 0.0
2017-Oct-16 04:00N 40°51' E 024°19'0 0.0
2017-Oct-16 03:30N 40°51' E 024°19'0 0.0
2017-Oct-16 03:00N 40°51' E 024°19'0 0.0
2017-Oct-16 02:30N 40°51' E 024°19'0 0.0
2017-Oct-16 02:00N 40°51' E 024°19'0 0.0
2017-Oct-16 01:30N 40°51' E 024°19'0 0.0
2017-Oct-16 01:00N 40°51' E 024°19'0 0.0
2017-Oct-16 00:30N 40°51' E 024°19'0 0.0
2017-Oct-16 00:00N 40°51' E 024°19'0 0.0
2017-Oct-15 23:30N 40°51' E 024°19'0 0.0
2017-Oct-15 23:00N 40°51' E 024°19'0 0.0
2017-Oct-15 22:30N 40°51' E 024°19'0 0.0
2017-Oct-15 22:00N 40°51' E 024°19'1 2.8
2017-Oct-15 21:30N 40°50' E 024°20'510.1
2017-Oct-15 21:00N 40°46' E 024°17'510.8
2017-Oct-15 20:30N 40°42' E 024°12'3 6.8
2017-Oct-15 20:00N 40°39' E 024°09'0 0.2
2017-Oct-15 19:22N 40°39' E 024°09'0 0.5
2017-Oct-15 18:54N 40°39' E 024°09'0 0.1
2017-Oct-15 18:30N 40°39' E 024°09'0 0.5
2017-Oct-15 17:59N 40°38' E 024°09'0 0.2
2017-Oct-15 17:30N 40°38' E 024°09'0 0.1
2017-Oct-15 16:59N 40°38' E 024°09'0 0.3
2017-Oct-15 16:30N 40°38' E 024°09'0 0.7
2017-Oct-15 15:59N 40°39' E 024°10'3 6.1
2017-Oct-15 15:30N 40°40' E 024°13'5 9.0
2017-Oct-15 15:00N 40°42' E 024°18'8 8.1
2017-Oct-15 14:00N 40°43' E 024°29'2 0.2
2017-Oct-15 02:23N 40°43' E 024°32'2 5.6
2017-Oct-15 02:00N 40°41' E 024°31'3 5.4
2017-Oct-15 01:30N 40°38' E 024°29'0 0.7
2017-Oct-15 01:00N 40°38' E 024°29'0 1.0
2017-Oct-15 00:30N 40°39' E 024°30'0 0.1
2017-Oct-15 00:00N 40°39' E 024°30'0 0.0
2017-Oct-14 23:30N 40°39' E 024°30'0 0.0
2017-Oct-14 23:00N 40°39' E 024°30'0 0.0
2017-Oct-14 22:30N 40°39' E 024°30'0 0.0
2017-Oct-14 22:00N 40°39' E 024°30'0 0.0
2017-Oct-14 21:30N 40°39' E 024°30'0 0.0
2017-Oct-14 21:00N 40°39' E 024°30'0 0.0
2017-Oct-14 20:30N 40°39' E 024°30'0 0.0
2017-Oct-14 20:00N 40°39' E 024°30'0 0.0
2017-Oct-14 19:30N 40°39' E 024°30'0 0.6
2017-Oct-14 19:00N 40°38' E 024°30'2 4.1
2017-Oct-14 18:30N 40°37' E 024°31'4 7.3
2017-Oct-14 18:00N 40°36' E 024°36'2 4.9
2017-Oct-14 17:30N 40°35' E 024°33'0 0.8
2017-Oct-14 17:00N 40°35' E 024°32'2 4.8
2017-Oct-14 16:30N 40°37' E 024°31'4 7.4
2017-Oct-14 16:00N 40°40' E 024°30'4 8.4
2017-Oct-14 15:30N 40°44' E 024°28'5 9.0
2017-Oct-14 15:00N 40°48' E 024°24'5 9.1
2017-Oct-14 14:30N 40°51' E 024°19'0 1.0
2017-Oct-14 14:00N 40°51' E 024°19'0 0.0
2017-Oct-14 13:30N 40°51' E 024°19'0 0.0
2017-Oct-14 13:00N 40°51' E 024°19'0 0.0
2017-Oct-14 12:30N 40°51' E 024°19'0 0.0
2017-Oct-14 12:00N 40°51' E 024°19'0 0.0
2017-Oct-14 11:30N 40°51' E 024°19'0 0.0
2017-Oct-14 11:00N 40°51' E 024°19'0 0.0
2017-Oct-14 10:30N 40°51' E 024°19'0 0.0
2017-Oct-14 10:00N 40°51' E 024°19'0 0.0
2017-Oct-14 09:30N 40°51' E 024°19'0 0.0
2017-Oct-14 09:00N 40°51' E 024°19'0 0.0
2017-Oct-14 08:30N 40°51' E 024°19'0 0.0
2017-Oct-14 08:00N 40°51' E 024°19'0 0.0
2017-Oct-14 07:30N 40°51' E 024°19'0 0.0
2017-Oct-14 07:00N 40°51' E 024°19'0 0.0
2017-Oct-14 06:30N 40°51' E 024°19'0 0.0
2017-Oct-14 06:00N 40°51' E 024°19'0 0.0
2017-Oct-14 05:30N 40°51' E 024°19'0 0.0
2017-Oct-14 05:00N 40°51' E 024°19'0 0.0
2017-Oct-14 04:30N 40°51' E 024°19'0 0.0
2017-Oct-14 04:00N 40°51' E 024°19'0 0.0
2017-Oct-14 03:30N 40°51' E 024°19'0 0.0
2017-Oct-14 03:00N 40°51' E 024°19'0 0.0
2017-Oct-14 02:30N 40°51' E 024°19'0 0.0
2017-Oct-14 02:00N 40°51' E 024°19'0 0.0
2017-Oct-14 01:30N 40°51' E 024°19'0 0.0
2017-Oct-14 01:00N 40°51' E 024°19'0 0.0
2017-Oct-14 00:30N 40°51' E 024°19'0 0.0
2017-Oct-14 00:00N 40°51' E 024°19'0 0.0
2017-Oct-13 23:30N 40°51' E 024°19'0 0.0
2017-Oct-13 23:00N 40°51' E 024°19'0 0.0
2017-Oct-13 22:30N 40°51' E 024°19'0 0.0
2017-Oct-13 22:00N 40°51' E 024°19'0 0.0
2017-Oct-13 21:30N 40°51' E 024°19'0 0.0
2017-Oct-13 21:00N 40°51' E 024°19'0 0.0
2017-Oct-13 20:30N 40°51' E 024°19'1 2.0
2017-Oct-13 20:00N 40°50' E 024°20'5 9.3
2017-Oct-13 19:30N 40°47' E 024°16'611.2
2017-Oct-13 19:00N 40°43' E 024°10'4 5.1
2017-Oct-13 18:18N 40°41' E 024°07'0 0.6
2017-Oct-13 17:58N 40°40' E 024°07'0 0.7
2017-Oct-13 17:30N 40°40' E 024°07'0 0.3
2017-Oct-13 17:00N 40°40' E 024°07'0 0.6
2017-Oct-13 16:30N 40°40' E 024°07'2 3.9
2017-Oct-13 15:55N 40°42' E 024°09'4 8.8
2017-Oct-13 15:30N 40°44' E 024°13'8 8.3
2017-Oct-13 14:32N 40°49' E 024°21'0 7.4
2017-Oct-13 14:30N 40°49' E 024°21'2 4.0
2017-Oct-13 14:00N 40°51' E 024°19'0 0.0
2017-Oct-13 13:30N 40°51' E 024°19'0 0.0
2017-Oct-13 13:00N 40°51' E 024°19'0 0.0
2017-Oct-13 12:30N 40°51' E 024°19'0 0.0
2017-Oct-13 12:00N 40°51' E 024°19'0 0.0
2017-Oct-13 11:30N 40°51' E 024°19'0 0.0
2017-Oct-13 11:00N 40°51' E 024°19'0 0.0
2017-Oct-13 10:30N 40°51' E 024°19'0 0.0
2017-Oct-13 10:00N 40°51' E 024°19'0 0.0
2017-Oct-13 09:30N 40°51' E 024°19'0 0.0
2017-Oct-13 09:00N 40°51' E 024°19'0 0.0
2017-Oct-13 08:30N 40°51' E 024°19'0 0.0
2017-Oct-13 08:00N 40°51' E 024°19'0 0.0
2017-Oct-13 07:30N 40°51' E 024°19'0 0.0
2017-Oct-13 07:00N 40°51' E 024°19'0 0.0
2017-Oct-13 06:30N 40°51' E 024°19'0 0.0
2017-Oct-13 06:00N 40°51' E 024°19'0 0.0
2017-Oct-13 05:30N 40°51' E 024°19'2 4.6
2017-Oct-13 05:00N 40°49' E 024°20'510.1
2017-Oct-13 04:30N 40°46' E 024°14'5 9.8
2017-Oct-13 04:00N 40°43' E 024°09'8 8.4
2017-Oct-13 03:06N 40°36' E 024°04'0 0.9
2017-Oct-13 02:56N 40°36' E 024°04'0 0.0
2017-Oct-13 02:27N 40°36' E 024°04'2 2.9
2017-Oct-13 01:50N 40°34' E 024°05'1 1.6
2017-Oct-13 01:15N 40°33' E 024°05'0 0.0
2017-Oct-12 22:59N 40°33' E 024°05'0 0.1
2017-Oct-12 22:29N 40°33' E 024°05'0 0.2
2017-Oct-12 21:56N 40°33' E 024°05'2 3.0
2017-Oct-12 21:25N 40°35' E 024°06'1 3.4
2017-Oct-12 21:00N 40°36' E 024°07'3 5.0
2017-Oct-12 20:29N 40°38' E 024°09'0 0.7
2017-Oct-12 20:00N 40°38' E 024°09'0 0.6
2017-Oct-12 19:30N 40°37' E 024°09'0 0.5
2017-Oct-12 19:00N 40°37' E 024°09'1 1.0
2017-Oct-12 18:30N 40°37' E 024°09'1 1.2
2017-Oct-12 18:00N 40°37' E 024°09'0 0.4
2017-Oct-12 17:14N 40°37' E 024°09'0 0.3
2017-Oct-12 16:56N 40°37' E 024°09'1 3.3
2017-Oct-12 16:30N 40°38' E 024°08'5 9.5
2017-Oct-12 16:00N 40°42' E 024°13'5 9.3
2017-Oct-12 15:30N 40°45' E 024°17'4 8.6
2017-Oct-12 15:00N 40°49' E 024°20'0 0.6
2017-Oct-12 14:30N 40°49' E 024°20'2 0.5
2017-Oct-12 10:12N 40°51' E 024°19'0 0.0
2017-Oct-12 10:00N 40°51' E 024°19'0 0.0
2017-Oct-12 09:30N 40°51' E 024°19'0 0.0
2017-Oct-12 08:59N 40°51' E 024°19'0 0.0
2017-Oct-12 08:30N 40°51' E 024°19'0 0.0
2017-Oct-12 08:00N 40°51' E 024°19'0 0.0
2017-Oct-12 07:30N 40°51' E 024°19'0 0.0
2017-Oct-12 06:56N 40°51' E 024°19'0 0.0
2017-Oct-12 06:28N 40°51' E 024°19'0 0.0
2017-Oct-12 06:00N 40°51' E 024°19'0 0.0
2017-Oct-12 05:03N 40°51' E 024°19'0 0.0
2017-Oct-12 05:00N 40°51' E 024°19'0 0.0
2017-Oct-12 04:30N 40°51' E 024°19'0 0.0
2017-Oct-12 04:00N 40°51' E 024°19'0 0.0
2017-Oct-12 03:30N 40°51' E 024°19'0 0.0
2017-Oct-12 03:00N 40°51' E 024°19'0 0.0
2017-Oct-12 02:30N 40°51' E 024°19'0 0.0
2017-Oct-12 02:00N 40°51' E 024°19'0 0.0
2017-Oct-12 01:30N 40°51' E 024°19'0 0.0
2017-Oct-12 01:00N 40°51' E 024°19'0 0.0
2017-Oct-12 00:30N 40°51' E 024°19'0 0.0
2017-Oct-12 00:00N 40°51' E 024°19'0 0.0
2017-Oct-11 23:30N 40°51' E 024°19'0 0.0
2017-Oct-11 23:00N 40°51' E 024°19'0 0.0
2017-Oct-11 22:30N 40°51' E 024°19'0 0.0
2017-Oct-11 22:00N 40°51' E 024°19'3 6.8
2017-Oct-11 21:30N 40°47' E 024°19'510.9
2017-Oct-11 21:00N 40°43' E 024°14'610.7
2017-Oct-11 20:29N 40°38' E 024°10'2 3.8
2017-Oct-11 19:58N 40°37' E 024°09'0 0.3
2017-Oct-11 19:28N 40°37' E 024°09'0 0.7
2017-Oct-11 18:57N 40°36' E 024°09'0 0.4
2017-Oct-11 18:23N 40°36' E 024°09'0 0.3
2017-Oct-11 17:50N 40°36' E 024°09'3 6.8
2017-Oct-11 17:22N 40°40' E 024°08'0 1.2
2017-Oct-11 16:59N 40°40' E 024°09'  

Dump ship's entire track history